createdAt,value
2022-08-19T00:01:28.642Z,9.52
2022-08-19T00:03:58.638Z,8.80
2022-08-19T00:06:26.150Z,7.63
2022-08-19T00:08:53.626Z,8.80
2022-08-19T00:11:26.052Z,8.55
2022-08-19T00:13:53.840Z,9.45
2022-08-19T00:16:26.166Z,9.98
2022-08-19T00:18:56.035Z,9.98
2022-08-19T00:21:23.817Z,9.80
2022-08-19T00:23:51.445Z,8.93
2022-08-19T00:26:18.959Z,9.88
2022-08-19T00:28:48.108Z,9.30
2022-08-19T00:31:17.205Z,10.25
2022-08-19T00:33:45.046Z,9.90
2022-08-19T00:36:12.881Z,10.18
2022-08-19T00:38:42.169Z,9.90
2022-08-19T00:41:10.188Z,9.88
2022-08-19T00:43:38.473Z,10.95
2022-08-19T00:46:07.391Z,9.83
2022-08-19T00:48:37.352Z,9.25
2022-08-19T00:51:07.462Z,9.13
2022-08-19T00:53:35.894Z,9.25
2022-08-19T00:56:07.014Z,9.65
2022-08-19T00:58:36.082Z,8.97
2022-08-19T01:01:05.434Z,8.68
2022-08-19T01:03:56.604Z,8.50
2022-08-19T01:06:21.958Z,8.15
2022-08-19T01:08:50.198Z,8.00
2022-08-19T01:11:18.031Z,8.27
2022-08-19T01:13:49.877Z,8.20
2022-08-19T01:16:19.605Z,8.43
2022-08-19T01:18:49.309Z,8.60
2022-08-19T01:21:24.421Z,9.27
2022-08-19T01:23:53.582Z,9.00
2022-08-19T01:26:23.931Z,9.80
2022-08-19T01:28:57.328Z,10.15
2022-08-19T01:31:31.352Z,10.38
2022-08-19T01:34:00.872Z,10.40
2022-08-19T01:36:30.528Z,9.70
2022-08-19T01:39:00.332Z,10.32
2022-08-19T01:41:27.893Z,10.38
2022-08-19T01:44:13.519Z,9.93
2022-08-19T01:46:44.862Z,9.77
2022-08-19T01:49:12.531Z,9.50
2022-08-19T01:51:40.677Z,9.88
2022-08-19T01:54:09.972Z,10.98
2022-08-19T01:56:37.773Z,11.63
2022-08-19T01:59:10.235Z,11.18
2022-08-19T02:01:37.838Z,10.07
2022-08-19T02:04:05.961Z,10.55
2022-08-19T02:06:33.932Z,9.90
2022-08-19T02:09:02.166Z,8.98
2022-08-19T02:11:34.324Z,9.60
2022-08-19T02:14:03.601Z,10.50
2022-08-19T02:16:31.812Z,10.23
2022-08-19T02:19:01.358Z,11.88
2022-08-19T02:21:29.884Z,12.48
2022-08-19T02:23:57.828Z,12.70
2022-08-19T02:26:27.317Z,12.17
2022-08-19T02:28:57.151Z,13.35
2022-08-19T02:31:26.866Z,15.05
2022-08-19T02:33:56.745Z,13.57
2022-08-19T02:36:26.235Z,12.48
2022-08-19T02:38:55.537Z,10.57
2022-08-19T02:41:26.599Z,9.10
2022-08-19T02:44:22.906Z,9.18
2022-08-19T02:46:44.308Z,10.77
2022-08-19T02:49:11.750Z,10.20
2022-08-19T02:51:46.140Z,11.37
2022-08-19T02:54:14.806Z,12.82
2022-08-19T02:56:44.101Z,11.48
2022-08-19T02:59:13.422Z,9.95
2022-08-19T03:01:43.168Z,9.85
2022-08-19T03:04:14.142Z,7.43
2022-08-19T03:06:43.732Z,8.35
2022-08-19T03:09:12.375Z,8.52
2022-08-19T03:11:40.640Z,8.65
2022-08-19T03:14:10.190Z,8.15
2022-08-19T03:16:43.714Z,8.97
2022-08-19T03:19:11.255Z,9.27
2022-08-19T03:21:38.745Z,10.63
2022-08-19T03:24:08.460Z,11.52
2022-08-19T03:26:36.219Z,11.52
2022-08-19T03:29:05.697Z,11.30
2022-08-19T03:31:43.456Z,10.30
2022-08-19T03:34:16.594Z,10.95
2022-08-19T03:36:44.168Z,9.93
2022-08-19T03:39:12.399Z,10.60
2022-08-19T03:41:44.991Z,11.00
2022-08-19T03:44:16.989Z,11.60
2022-08-19T03:46:47.921Z,11.32
2022-08-19T03:49:18.744Z,11.70
2022-08-19T03:51:48.823Z,11.05
2022-08-19T03:54:18.950Z,11.10
2022-08-19T03:56:48.443Z,10.70
2022-08-19T03:59:18.718Z,9.27
2022-08-19T04:01:46.608Z,8.63
2022-08-19T04:04:14.144Z,9.38
2022-08-19T04:06:44.856Z,9.80
2022-08-19T04:09:13.584Z,12.35
2022-08-19T04:11:44.963Z,13.18
2022-08-19T04:14:14.913Z,15.90
2022-08-19T04:16:43.551Z,14.70
2022-08-19T04:19:11.184Z,14.40
2022-08-19T04:21:38.781Z,14.18
2022-08-19T04:24:08.718Z,12.38
2022-08-19T04:26:38.591Z,9.93
2022-08-19T04:29:12.342Z,10.80
2022-08-19T04:31:42.048Z,11.00
2022-08-19T04:34:12.046Z,13.25
2022-08-19T04:36:43.238Z,17.40
2022-08-19T04:39:14.429Z,21.60
2022-08-19T04:41:59.734Z,23.17
2022-08-19T04:44:31.464Z,19.13
2022-08-19T04:47:01.366Z,13.15
2022-08-19T04:49:29.340Z,11.43
2022-08-19T04:51:56.891Z,11.60
2022-08-19T04:54:37.600Z,9.75
2022-08-19T04:57:08.406Z,11.50
2022-08-19T04:59:36.819Z,12.35
2022-08-19T05:02:05.363Z,14.18
2022-08-19T05:04:33.698Z,15.05
2022-08-19T05:07:02.490Z,15.05
2022-08-19T05:09:39.085Z,14.90
2022-08-19T05:12:20.252Z,15.90
2022-08-19T05:14:48.100Z,14.10
2022-08-19T05:17:37.529Z,13.85
2022-08-19T05:20:22.636Z,13.23
2022-08-19T05:22:50.199Z,13.10
2022-08-19T05:25:21.435Z,14.65
2022-08-19T05:27:49.847Z,12.48
2022-08-19T05:30:18.926Z,11.77
2022-08-19T05:33:01.299Z,11.57
2022-08-19T05:35:29.084Z,10.40
2022-08-19T05:38:02.507Z,13.60
2022-08-19T05:40:31.398Z,12.88
2022-08-19T05:42:59.469Z,12.73
2022-08-19T05:45:26.914Z,12.90
2022-08-19T05:47:54.794Z,16.17
2022-08-19T05:50:22.331Z,19.85
2022-08-19T05:52:50.190Z,27.50
2022-08-19T05:55:21.093Z,33.08
2022-08-19T05:57:49.984Z,38.88
2022-08-19T06:00:21.493Z,37.97
2022-08-19T06:02:52.495Z,37.35
2022-08-19T06:05:20.993Z,37.83
2022-08-19T06:07:48.515Z,35.97
2022-08-19T06:10:16.329Z,32.40
2022-08-19T06:12:43.800Z,34.67
2022-08-19T06:15:14.931Z,35.00
2022-08-19T06:17:45.134Z,29.25
2022-08-19T06:20:16.131Z,33.65
2022-08-19T06:22:45.668Z,28.98
2022-08-19T06:25:14.707Z,27.03
2022-08-19T06:28:11.455Z,28.35
2022-08-19T06:30:31.517Z,30.33
2022-08-19T06:32:59.637Z,28.85
2022-08-19T06:35:27.225Z,27.30
2022-08-19T06:37:54.945Z,26.97
2022-08-19T06:40:22.955Z,27.02
2022-08-19T06:42:54.786Z,29.33
2022-08-19T06:45:24.633Z,24.38
2022-08-19T06:47:59.287Z,23.75
2022-08-19T06:50:27.283Z,23.77
2022-08-19T06:52:56.350Z,23.80
2022-08-19T06:55:24.381Z,24.05
2022-08-19T06:57:54.540Z,23.35
2022-08-19T07:00:23.077Z,23.38
2022-08-19T07:02:59.406Z,24.80
2022-08-19T07:05:30.425Z,24.77
2022-08-19T07:08:02.861Z,23.73
2022-08-19T07:10:33.653Z,24.25
2022-08-19T07:13:01.225Z,23.98
2022-08-19T07:15:28.874Z,22.80
2022-08-19T07:17:56.695Z,24.77
2022-08-19T07:20:28.492Z,23.58
2022-08-19T07:22:58.298Z,23.48
2022-08-19T07:25:32.339Z,23.05
2022-08-19T07:28:01.548Z,22.67
2022-08-19T07:30:29.451Z,21.95
2022-08-19T07:32:59.282Z,22.98
2022-08-19T07:35:26.824Z,22.45
2022-08-19T07:37:54.508Z,20.95
2022-08-19T07:40:23.641Z,20.77
2022-08-19T07:42:51.111Z,19.73
2022-08-19T07:45:18.673Z,20.48
2022-08-19T07:47:48.810Z,17.75
2022-08-19T07:50:21.254Z,18.20
2022-08-19T07:52:50.317Z,16.97
2022-08-19T07:55:42.204Z,16.88
2022-08-19T07:58:09.777Z,15.60
2022-08-19T08:00:37.792Z,17.05
2022-08-19T08:03:05.391Z,17.00
2022-08-19T08:05:50.551Z,17.80
2022-08-19T08:08:43.859Z,16.48
2022-08-19T08:11:12.577Z,17.65
2022-08-19T08:13:45.052Z,15.68
2022-08-19T08:16:13.979Z,17.25
2022-08-19T08:18:43.142Z,16.00
2022-08-19T08:21:10.802Z,17.27
2022-08-19T08:23:39.813Z,17.55
2022-08-19T08:26:07.346Z,14.05
2022-08-19T08:28:34.933Z,18.27
2022-08-19T08:31:03.917Z,15.80
2022-08-19T08:33:37.270Z,15.30
2022-08-19T08:36:06.551Z,16.27
2022-08-19T08:38:39.649Z,14.48
2022-08-19T08:41:15.111Z,14.40
2022-08-19T08:43:44.351Z,14.33
2022-08-19T08:46:30.651Z,13.98
2022-08-19T08:49:08.347Z,13.05
2022-08-19T08:54:15.879Z,14.02
2022-08-19T08:56:45.356Z,14.40
2022-08-19T08:59:21.989Z,14.73
2022-08-19T09:01:50.990Z,13.90
2022-08-19T09:04:18.724Z,13.75
2022-08-19T09:06:53.686Z,15.27
2022-08-19T09:09:31.922Z,14.27
2022-08-19T09:12:11.831Z,14.48
2022-08-19T09:14:50.826Z,14.38
2022-08-19T09:17:32.005Z,14.95
2022-08-19T09:20:05.771Z,14.02
2022-08-19T09:22:37.474Z,14.00
2022-08-19T09:25:06.726Z,14.02
2022-08-19T09:27:42.919Z,15.10
2022-08-19T09:30:15.994Z,14.55
2022-08-19T09:32:46.160Z,13.20
2022-08-19T09:35:15.460Z,14.80
2022-08-19T09:37:43.650Z,14.02
2022-08-19T09:40:13.118Z,14.27
2022-08-19T09:42:50.257Z,13.48
2022-08-19T09:45:23.292Z,13.63
2022-08-19T09:47:54.259Z,13.23
2022-08-19T09:50:24.010Z,12.75
2022-08-19T09:52:55.311Z,11.30
2022-08-19T09:55:31.827Z,12.82
2022-08-19T09:58:03.932Z,13.00
2022-08-19T10:00:32.475Z,12.40
2022-08-19T10:03:01.462Z,13.25
2022-08-19T10:05:48.882Z,12.98
2022-08-19T10:08:18.258Z,12.90
2022-08-19T10:10:47.273Z,14.05
2022-08-19T10:13:16.063Z,11.70
2022-08-19T10:15:45.125Z,12.65
2022-08-19T10:18:18.645Z,11.90
2022-08-19T10:20:51.756Z,11.10
2022-08-19T10:23:21.985Z,13.80
2022-08-19T10:25:50.464Z,12.17
2022-08-19T10:28:19.249Z,9.63
2022-08-19T10:30:47.839Z,11.82
2022-08-19T10:33:38.717Z,9.90
2022-08-19T10:36:07.185Z,12.00
2022-08-19T10:38:35.604Z,11.53
2022-08-19T10:41:11.194Z,11.30
2022-08-19T10:43:40.536Z,11.32
2022-08-19T10:46:13.757Z,9.98
2022-08-19T10:48:46.169Z,10.73
2022-08-19T10:51:32.231Z,11.27
2022-08-19T10:54:00.639Z,11.43
2022-08-19T10:56:46.196Z,10.27
2022-08-19T10:59:15.019Z,9.25
2022-08-19T11:01:43.986Z,10.32
2022-08-19T11:04:14.449Z,9.57
2022-08-19T11:06:44.274Z,8.40
2022-08-19T11:09:12.749Z,8.63
2022-08-19T11:11:41.751Z,8.43
2022-08-19T11:14:10.682Z,7.95
2022-08-19T11:16:39.900Z,6.77
2022-08-19T11:19:09.177Z,6.85
2022-08-19T11:21:40.844Z,10.52
2022-08-19T11:24:11.106Z,10.07
2022-08-19T11:26:39.736Z,8.13
2022-08-19T11:29:12.436Z,8.93
2022-08-19T11:31:42.084Z,8.85
2022-08-19T11:34:12.301Z,10.05
2022-08-19T11:36:43.626Z,10.07
2022-08-19T11:39:13.991Z,9.27
2022-08-19T11:41:42.008Z,9.83
2022-08-19T11:44:09.700Z,9.38
2022-08-19T11:46:38.411Z,10.35
2022-08-19T11:49:13.794Z,10.30
2022-08-19T11:51:44.037Z,10.13
2022-08-19T11:54:13.608Z,10.97
2022-08-19T11:56:41.800Z,11.00
2022-08-19T11:59:14.071Z,12.07
2022-08-19T12:01:43.432Z,9.57
2022-08-19T12:04:11.303Z,9.85
2022-08-19T12:06:40.958Z,9.50
2022-08-19T12:09:11.384Z,9.73
2022-08-19T12:11:39.857Z,7.68
2022-08-19T12:14:07.878Z,7.13
2022-08-19T12:16:37.806Z,7.30
2022-08-19T12:19:08.742Z,5.87
2022-08-19T12:21:37.882Z,6.40
2022-08-19T12:24:08.339Z,7.03
2022-08-19T12:26:52.511Z,4.63
2022-08-19T12:29:23.685Z,4.57
2022-08-19T12:31:52.064Z,4.73
2022-08-19T12:34:20.880Z,3.70
2022-08-19T12:36:50.039Z,6.03
2022-08-19T12:39:17.530Z,6.15
2022-08-19T12:41:54.124Z,7.13
2022-08-19T12:44:29.542Z,5.87
2022-08-19T12:46:59.992Z,6.20
2022-08-19T12:49:53.791Z,5.53
2022-08-19T12:52:19.851Z,6.28
2022-08-19T12:54:53.965Z,6.47
2022-08-19T12:57:24.512Z,6.90
2022-08-19T13:00:00.081Z,6.05
2022-08-19T13:02:27.978Z,6.97
2022-08-19T13:04:55.460Z,8.00
2022-08-19T13:07:22.924Z,5.85
2022-08-19T13:09:53.200Z,4.73
2022-08-19T13:12:21.978Z,5.22
2022-08-19T13:14:54.059Z,5.72
2022-08-19T13:17:22.512Z,5.10
2022-08-19T13:19:51.106Z,5.32
2022-08-19T13:22:19.282Z,5.43
2022-08-19T13:24:47.520Z,4.90
2022-08-19T13:27:15.291Z,5.60
2022-08-19T13:30:01.079Z,4.28
2022-08-19T13:32:48.130Z,4.43
2022-08-19T13:35:19.532Z,4.13
2022-08-19T13:37:47.266Z,4.40
2022-08-19T13:40:19.839Z,3.92
2022-08-19T13:42:50.689Z,3.40
2022-08-19T13:45:20.872Z,4.15
2022-08-19T13:47:53.596Z,3.90
2022-08-19T13:50:25.764Z,4.20
2022-08-19T13:52:53.890Z,2.90
2022-08-19T13:55:24.555Z,3.03
2022-08-19T13:57:53.851Z,3.65
2022-08-19T14:00:22.878Z,4.60
2022-08-19T14:02:54.778Z,4.32
2022-08-19T14:05:22.904Z,3.60
2022-08-19T14:07:50.403Z,2.20
2022-08-19T14:10:19.685Z,3.60
2022-08-19T14:12:48.154Z,3.50
2022-08-19T14:15:16.214Z,3.75
2022-08-19T14:17:45.638Z,3.95
2022-08-19T14:20:17.616Z,3.10
2022-08-19T14:22:47.740Z,3.00
2022-08-19T14:25:18.911Z,2.70
2022-08-19T14:27:46.831Z,2.85
2022-08-19T14:30:16.731Z,2.72
2022-08-19T14:32:45.380Z,2.42
2022-08-19T14:35:16.357Z,2.95
2022-08-19T14:37:46.178Z,2.60
2022-08-19T14:40:15.133Z,2.42
2022-08-19T14:42:43.062Z,2.30
2022-08-19T14:45:11.873Z,2.47
2022-08-19T14:47:40.891Z,1.92
2022-08-19T14:50:10.443Z,2.47
2022-08-19T14:52:40.959Z,2.35
2022-08-19T14:55:09.280Z,3.08
2022-08-19T14:57:36.973Z,2.20
2022-08-19T15:00:05.662Z,2.42
2022-08-19T15:02:34.640Z,2.20
2022-08-19T15:05:03.116Z,2.58
2022-08-19T15:07:30.896Z,2.00
2022-08-19T15:10:00.196Z,1.98
2022-08-19T15:12:27.769Z,2.30
2022-08-19T15:14:56.340Z,1.60
2022-08-19T15:17:43.294Z,2.05
2022-08-19T15:20:14.452Z,2.15
2022-08-19T15:22:42.587Z,1.70
2022-08-19T15:25:15.706Z,2.05
2022-08-19T15:27:44.279Z,1.90
2022-08-19T15:30:13.780Z,1.85
2022-08-19T15:32:41.478Z,1.50
2022-08-19T15:35:09.571Z,1.50
2022-08-19T15:37:37.691Z,1.70
2022-08-19T15:40:07.349Z,1.57
2022-08-19T15:42:37.299Z,1.70
2022-08-19T15:45:05.342Z,1.85
2022-08-19T15:47:34.542Z,1.80
2022-08-19T15:50:10.512Z,2.10
2022-08-19T15:52:46.789Z,2.00
2022-08-19T15:55:19.966Z,2.10
2022-08-19T15:58:29.029Z,2.28
2022-08-19T16:01:15.346Z,1.95
2022-08-19T16:04:01.392Z,1.70
2022-08-19T16:06:31.310Z,2.07
2022-08-19T16:09:01.765Z,2.10
2022-08-19T16:11:32.136Z,2.25
2022-08-19T16:14:02.676Z,1.90
2022-08-19T16:16:34.107Z,2.00
2022-08-19T16:19:03.837Z,2.10
2022-08-19T16:21:33.087Z,2.05
2022-08-19T16:24:02.737Z,1.70
2022-08-19T16:26:31.062Z,1.73
2022-08-19T16:29:01.367Z,1.45
2022-08-19T16:31:29.458Z,1.70
2022-08-19T16:33:57.339Z,1.45
2022-08-19T16:36:25.019Z,1.63
2022-08-19T16:38:53.315Z,1.60
2022-08-19T16:41:21.426Z,1.42
2022-08-19T16:43:52.477Z,1.70
2022-08-19T16:46:22.633Z,1.23
2022-08-19T16:48:50.879Z,1.30
2022-08-19T16:51:18.645Z,1.65
2022-08-19T16:53:46.206Z,1.58
2022-08-19T16:56:13.988Z,1.40
2022-08-19T16:58:42.568Z,2.17
2022-08-19T17:01:11.128Z,1.55
2022-08-19T17:03:40.296Z,1.55
2022-08-19T17:06:15.854Z,1.60
2022-08-19T17:08:48.692Z,1.37
2022-08-19T17:11:18.685Z,1.40
2022-08-19T17:13:47.664Z,1.45
2022-08-19T17:16:16.082Z,1.42
2022-08-19T17:18:44.969Z,1.20
2022-08-19T17:21:13.233Z,1.17
2022-08-19T17:23:43.471Z,1.20
2022-08-19T17:26:11.535Z,1.20
2022-08-19T17:28:45.324Z,1.48
2022-08-19T17:31:13.156Z,1.50
2022-08-19T17:33:41.099Z,1.20
2022-08-19T17:36:10.428Z,1.30
2022-08-19T17:38:39.224Z,1.60
2022-08-19T17:41:07.455Z,1.30
2022-08-19T17:43:41.298Z,1.50
2022-08-19T17:46:18.279Z,1.60
2022-08-19T17:48:51.927Z,1.50
2022-08-19T17:51:24.503Z,1.60
2022-08-19T17:53:54.532Z,1.50
2022-08-19T17:56:23.419Z,1.10
2022-08-19T17:58:54.389Z,1.50
2022-08-19T18:01:29.503Z,1.45
2022-08-19T18:04:16.882Z,1.40
2022-08-19T18:06:50.250Z,1.42
2022-08-19T18:09:20.969Z,1.50
2022-08-19T18:11:53.034Z,1.50
2022-08-19T18:14:20.972Z,1.70
2022-08-19T18:16:48.483Z,1.80
2022-08-19T18:19:16.004Z,1.65
2022-08-19T18:21:44.882Z,1.20
2022-08-19T18:24:12.551Z,1.40
2022-08-19T18:26:40.285Z,1.45
2022-08-19T18:29:09.218Z,1.80
2022-08-19T18:31:38.581Z,1.40
2022-08-19T18:34:09.926Z,1.42
2022-08-19T18:36:53.535Z,1.70
2022-08-19T18:39:44.241Z,1.60
2022-08-19T18:42:32.735Z,1.70
2022-08-19T18:45:18.147Z,1.35
2022-08-19T18:48:03.420Z,1.83
2022-08-19T18:50:31.087Z,1.33
2022-08-19T18:52:58.616Z,1.42
2022-08-19T18:55:29.168Z,1.25
2022-08-19T18:57:56.929Z,1.10
2022-08-19T19:00:25.211Z,1.20
2022-08-19T19:02:54.474Z,1.40
2022-08-19T19:05:22.873Z,1.20
2022-08-19T19:07:50.475Z,1.27
2022-08-19T19:10:18.094Z,1.10
2022-08-19T19:12:47.668Z,1.20
2022-08-19T19:15:15.174Z,1.00
2022-08-19T19:17:42.705Z,1.10
2022-08-19T19:20:10.283Z,1.30
2022-08-19T19:22:37.814Z,1.10
2022-08-19T19:25:06.545Z,1.08
2022-08-19T19:27:34.030Z,0.97
2022-08-19T19:30:02.898Z,1.00
2022-08-19T19:32:38.967Z,1.08
2022-08-19T19:35:09.740Z,1.08
2022-08-19T19:37:37.355Z,1.00
2022-08-19T19:40:05.482Z,1.20
2022-08-19T19:42:33.031Z,1.15
2022-08-19T19:45:01.962Z,1.45
2022-08-19T19:47:31.122Z,1.50
2022-08-19T19:50:15.588Z,1.58
2022-08-19T19:52:46.554Z,1.40
2022-08-19T19:55:17.942Z,1.52
2022-08-19T19:57:46.201Z,1.85
2022-08-19T20:00:16.304Z,1.67
2022-08-19T20:02:49.274Z,1.95
2022-08-19T20:05:19.144Z,2.07
2022-08-19T20:08:04.401Z,2.10
2022-08-19T20:10:32.444Z,2.22
2022-08-19T20:13:02.221Z,2.15
2022-08-19T20:15:30.881Z,1.83
2022-08-19T20:18:00.825Z,2.10
2022-08-19T20:20:28.363Z,1.88
2022-08-19T20:22:55.936Z,1.85
2022-08-19T20:25:23.454Z,2.13
2022-08-19T20:27:51.159Z,2.15
2022-08-19T20:30:21.639Z,2.30
2022-08-19T20:32:51.353Z,2.00
2022-08-19T20:35:22.120Z,1.90
2022-08-19T20:37:52.853Z,1.40
2022-08-19T20:40:23.543Z,1.40
2022-08-19T20:42:51.398Z,0.90
2022-08-19T20:45:32.895Z,0.98
2022-08-19T20:48:02.215Z,0.80
2022-08-19T20:50:31.425Z,0.85
2022-08-19T20:52:59.359Z,0.70
2022-08-19T20:55:28.245Z,0.80
2022-08-19T20:57:56.445Z,1.00
2022-08-19T21:00:24.116Z,1.10
2022-08-19T21:02:51.564Z,1.00
2022-08-19T21:05:19.032Z,0.93
2022-08-19T21:07:47.843Z,0.80
2022-08-19T21:10:15.329Z,1.00
2022-08-19T21:12:44.273Z,1.25
2022-08-19T21:15:12.394Z,1.10
2022-08-19T21:17:39.943Z,1.25
2022-08-19T21:20:09.539Z,1.30
2022-08-19T21:22:37.091Z,1.58
2022-08-19T21:25:07.095Z,1.65
2022-08-19T21:27:34.659Z,1.42
2022-08-19T21:30:02.142Z,1.58
2022-08-19T21:32:29.623Z,1.37
2022-08-19T21:34:57.303Z,1.35
2022-08-19T21:37:26.137Z,1.60
2022-08-19T21:39:54.174Z,1.50
2022-08-19T21:42:23.414Z,1.40
2022-08-19T21:44:50.988Z,1.53
2022-08-19T21:47:18.505Z,1.90
2022-08-19T21:49:46.016Z,1.98
2022-08-19T21:52:13.773Z,2.05
2022-08-19T21:54:41.649Z,2.08
2022-08-19T21:57:10.507Z,2.20
2022-08-19T21:59:43.519Z,2.40
2022-08-19T22:02:19.972Z,2.75
2022-08-19T22:04:49.061Z,2.42
2022-08-19T22:07:16.691Z,2.90
2022-08-19T22:09:45.410Z,2.70
2022-08-19T22:12:23.855Z,2.83
2022-08-19T22:14:53.760Z,3.20
2022-08-19T22:17:22.308Z,2.60
2022-08-19T22:19:50.822Z,2.72
2022-08-19T22:22:23.998Z,2.97
2022-08-19T22:24:51.772Z,2.63
2022-08-19T22:27:20.179Z,2.80
2022-08-19T22:29:48.051Z,3.05
2022-08-19T22:32:27.891Z,3.50
2022-08-19T22:34:59.226Z,3.73
2022-08-19T22:37:27.608Z,3.55
2022-08-19T22:39:55.521Z,3.63
2022-08-19T22:42:24.647Z,3.67
2022-08-19T22:44:53.144Z,4.00
2022-08-19T22:47:23.376Z,4.27
2022-08-19T22:49:54.612Z,4.00
2022-08-19T22:52:21.960Z,3.85
2022-08-19T22:54:51.339Z,3.58
2022-08-19T22:57:20.344Z,3.92
2022-08-19T22:59:49.451Z,4.03
2022-08-19T23:02:19.183Z,3.92
2022-08-19T23:04:48.779Z,3.85
2022-08-19T23:07:16.528Z,3.72
2022-08-19T23:09:44.518Z,4.20
2022-08-19T23:12:13.763Z,4.40
2022-08-19T23:14:41.477Z,4.32
2022-08-19T23:17:09.402Z,4.35
2022-08-19T23:19:38.342Z,3.75
2022-08-19T23:22:08.255Z,4.45
2022-08-19T23:24:35.721Z,4.63
2022-08-19T23:27:21.144Z,4.22
2022-08-19T23:30:08.179Z,4.57
2022-08-19T23:32:36.395Z,4.95
2022-08-19T23:35:04.530Z,4.93
2022-08-19T23:37:33.373Z,4.80
2022-08-19T23:40:01.236Z,4.90
2022-08-19T23:42:28.844Z,5.20
2022-08-19T23:45:01.225Z,5.43
2022-08-19T23:47:29.283Z,5.63
2022-08-19T23:49:57.923Z,5.50
2022-08-19T23:52:26.143Z,6.65
2022-08-19T23:54:55.179Z,6.35
2022-08-19T23:57:22.933Z,4.95
2022-08-19T23:59:50.418Z,4.93
